Time;durP1;ratioP1;P1;durP2;ratioP2;P2;SDS_P1;SDS_P2;PMS_P1;PMS_P2;Temp;Humidity;BMP_temperature;BMP_pressure;BME280_temperature;BME280_humidity;BME280_pressure;Samples;Min_cycle;Max_cycle;Signal;HPM_P1;HPM_P2
2023/05/06 00:00:21;;;;;;;3.00;1.98;;;;;;;;;;5083163;28;20282;-65
2023/05/06 00:02:46;;;;;;;2.25;1.90;;;;;;;;;;5065367;28;20496;-67
2023/05/06 00:05:12;;;;;;;2.20;1.77;;;;;;;;;;5081574;28;20063;-66
2023/05/06 00:07:38;;;;;;;3.08;2.42;;;;;;;;;;5081651;28;20495;-68
2023/05/06 00:10:03;;;;;;;2.90;2.20;;;;;;;;;;5064326;28;20097;-63
2023/05/06 00:12:28;;;;;;;2.67;2.00;;;;;;;;;;5083269;28;20036;-67
2023/05/06 00:14:54;;;;;;;3.13;2.30;;;;;;;;;;5077853;28;20055;-67
2023/05/06 00:17:19;;;;;;;3.15;2.10;;;;;;;;;;5064763;28;20056;-66
2023/05/06 00:19:44;;;;;;;2.60;2.00;;;;;;;;;;5083045;28;20040;-62
2023/05/06 00:22:10;;;;;;;2.67;2.13;;;;;;;;;;5047495;28;20177;-66
2023/05/06 00:24:35;;;;;;;2.38;2.03;;;;;;;;;;5063967;28;20270;-66
2023/05/06 00:27:00;;;;;;;2.67;1.80;;;;;;;;;;5083045;28;20139;-68
2023/05/06 00:29:26;;;;;;;3.60;2.10;;;;;;;;;;5081379;28;20282;-67
2023/05/06 00:31:51;;;;;;;2.80;2.00;;;;;;;;;;5080803;28;20157;-68
2023/05/06 00:34:16;;;;;;;2.57;2.03;;;;;;;;;;5065033;28;20039;-66
2023/05/06 00:36:41;;;;;;;2.47;2.00;;;;;;;;;;5083274;28;20286;-63
2023/05/06 00:39:07;;;;;;;2.90;2.00;;;;;;;;;;5083840;28;20040;-65
2023/05/06 00:41:32;;;;;;;2.40;1.70;;;;;;;;;;5084961;28;20062;-69
2023/05/06 00:43:57;;;;;;;2.40;1.90;;;;;;;;;;5065463;28;20750;-66
2023/05/06 00:46:22;;;;;;;3.05;2.00;;;;;;;;;;5081010;28;20123;-66
2023/05/06 00:48:48;;;;;;;2.70;2.00;;;;;;;;;;5045966;28;20040;-65
2023/05/06 00:51:13;;;;;;;2.77;2.00;;;;;;;;;;5064122;28;20797;-63
2023/05/06 00:53:38;;;;;;;3.47;2.30;;;;;;;;;;5064222;28;20044;-63
2023/05/06 00:56:04;;;;;;;2.42;2.03;;;;;;;;;;5064286;28;20294;-66
2023/05/06 00:58:29;;;;;;;2.53;2.00;;;;;;;;;;5082334;28;20080;-65
2023/05/06 01:00:54;;;;;;;2.50;1.90;;;;;;;;;;5063877;28;20437;-64
2023/05/06 01:03:20;;;;;;;2.30;2.07;;;;;;;;;;5047282;28;20508;-69
2023/05/06 01:05:49;;;;;;;3.28;2.15;;;;;;;;;;5062876;28;20032;-66
2023/05/06 01:08:24;;;;;;;3.42;2.10;;;;;;;;;;5080663;28;20063;-64
2023/05/06 01:10:49;;;;;;;2.65;1.95;;;;;;;;;;5081840;28;20028;-63
2023/05/06 01:13:26;;;;;;;2.90;2.15;;;;;;;;;;5080067;28;20059;-66
2023/05/06 01:15:53;;;;;;;2.60;2.10;;;;;;;;;;5063131;28;20074;-67
2023/05/06 01:18:20;;;;;;;2.88;2.20;;;;;;;;;;5080446;28;20877;-64
2023/05/06 01:20:46;;;;;;;2.70;2.15;;;;;;;;;;5082397;28;20089;-66
2023/05/06 01:23:12;;;;;;;2.75;2.30;;;;;;;;;;5066826;28;20153;-68
2023/05/06 01:25:37;;;;;;;3.03;2.03;;;;;;;;;;5046750;28;20536;-67
2023/05/06 01:28:02;;;;;;;3.00;2.10;;;;;;;;;;5081418;28;20052;-67
2023/05/06 01:30:29;;;;;;;3.73;2.27;;;;;;;;;;5062334;28;20357;-67
2023/05/06 01:32:58;;;;;;;2.58;2.08;;;;;;;;;;5046753;28;20266;-67
2023/05/06 01:35:26;;;;;;;2.90;2.13;;;;;;;;;;5063405;28;20069;-66
2023/05/06 01:37:53;;;;;;;2.90;2.10;;;;;;;;;;5046625;28;20063;-63
2023/05/06 01:40:19;;;;;;;2.83;2.00;;;;;;;;;;5044928;28;20043;-65
2023/05/06 01:42:50;;;;;;;2.20;1.90;;;;;;;;;;5082264;28;20028;-66
2023/05/06 01:45:16;;;;;;;2.47;2.20;;;;;;;;;;5051123;28;20852;-64
2023/05/06 01:47:41;;;;;;;1.88;1.65;;;;;;;;;;5067472;28;20032;-69
2023/05/06 01:50:06;;;;;;;2.70;2.13;;;;;;;;;;5050790;28;20060;-65
2023/05/06 01:52:32;;;;;;;2.53;2.25;;;;;;;;;;5066510;28;20095;-64
2023/05/06 01:54:57;;;;;;;2.53;2.03;;;;;;;;;;5067430;28;20032;-63
2023/05/06 01:57:22;;;;;;;2.53;2.10;;;;;;;;;;5067218;28;20105;-64
2023/05/06 01:59:47;;;;;;;2.83;2.10;;;;;;;;;;5067322;28;20123;-66
2023/05/06 02:02:13;;;;;;;3.20;2.47;;;;;;;;;;5067404;28;20032;-69
2023/05/06 02:04:38;;;;;;;3.17;2.17;;;;;;;;;;5085345;28;20119;-65
2023/05/06 02:07:03;;;;;;;2.40;2.00;;;;;;;;;;5083732;28;20278;-63
2023/05/06 02:09:28;;;;;;;3.07;2.40;;;;;;;;;;5080783;28;20812;-65
2023/05/06 02:11:53;;;;;;;3.20;2.33;;;;;;;;;;5084943;28;20401;-67
2023/05/06 02:14:19;;;;;;;3.07;2.53;;;;;;;;;;5085059;28;20266;-66
2023/05/06 02:16:44;;;;;;;3.33;2.20;;;;;;;;;;5083336;28;20286;-68
2023/05/06 02:19:09;;;;;;;2.73;2.30;;;;;;;;;;5066696;28;20278;-64
2023/05/06 02:21:35;;;;;;;2.85;2.40;;;;;;;;;;5067307;28;20266;-69
2023/05/06 02:24:00;;;;;;;2.70;2.00;;;;;;;;;;5067379;28;20032;-66
2023/05/06 02:26:25;;;;;;;3.53;2.53;;;;;;;;;;5080829;28;20036;-68
2023/05/06 02:28:51;;;;;;;2.60;2.20;;;;;;;;;;5083686;28;20067;-67
2023/05/06 02:31:16;;;;;;;3.00;2.20;;;;;;;;;;5084602;28;20115;-70
2023/05/06 02:33:42;;;;;;;2.80;2.23;;;;;;;;;;5050030;28;20266;-67
2023/05/06 02:36:07;;;;;;;2.53;2.17;;;;;;;;;;5049563;28;20278;-67
2023/05/06 02:38:33;;;;;;;2.57;2.03;;;;;;;;;;5085068;28;20048;-63
2023/05/06 02:40:58;;;;;;;2.63;2.42;;;;;;;;;;5066190;28;20276;-65
2023/05/06 02:43:23;;;;;;;3.13;2.22;;;;;;;;;;5070398;28;20216;-66
2023/05/06 02:45:49;;;;;;;2.77;2.17;;;;;;;;;;5071933;28;20040;-66
2023/05/06 02:48:15;;;;;;;2.70;2.30;;;;;;;;;;5067183;28;20040;-67
2023/05/06 02:50:40;;;;;;;3.05;2.35;;;;;;;;;;5057585;28;20039;-63
2023/05/06 02:53:07;;;;;;;2.65;2.20;;;;;;;;;;5073213;28;20425;-68
2023/05/06 02:55:33;;;;;;;2.70;2.30;;;;;;;;;;5070281;28;20176;-62
2023/05/06 02:57:58;;;;;;;2.90;2.53;;;;;;;;;;5047769;28;20056;-66
2023/05/06 03:00:23;;;;;;;2.63;2.20;;;;;;;;;;5070233;28;20032;-63
2023/05/06 03:02:48;;;;;;;3.35;2.67;;;;;;;;;;5084515;28;20293;-67
2023/05/06 03:05:14;;;;;;;2.63;2.10;;;;;;;;;;5082936;28;20475;-64
2023/05/06 03:07:39;;;;;;;2.70;2.20;;;;;;;;;;5084453;28;20480;-67
2023/05/06 03:10:05;;;;;;;3.22;2.13;;;;;;;;;;5049385;28;21095;-66
2023/05/06 03:12:30;;;;;;;2.85;2.30;;;;;;;;;;5065830;28;20109;-68
2023/05/06 03:14:55;;;;;;;3.30;2.33;;;;;;;;;;5050402;28;20526;-65
2023/05/06 03:17:20;;;;;;;2.90;2.60;;;;;;;;;;5081055;28;20306;-66
2023/05/06 03:19:47;;;;;;;2.53;2.07;;;;;;;;;;5065844;28;20290;-67
2023/05/06 03:22:13;;;;;;;2.72;2.10;;;;;;;;;;5082969;28;20254;-63
2023/05/06 03:24:38;;;;;;;3.40;2.30;;;;;;;;;;5082823;28;20040;-67
2023/05/06 03:27:03;;;;;;;2.85;2.00;;;;;;;;;;5083195;28;20087;-66
2023/05/06 03:29:29;;;;;;;2.70;2.20;;;;;;;;;;5080686;28;20036;-67
2023/05/06 03:31:54;;;;;;;2.70;2.20;;;;;;;;;;5063525;28;21130;-69
2023/05/06 03:34:20;;;;;;;3.13;2.55;;;;;;;;;;5047355;28;20903;-69
2023/05/06 03:36:45;;;;;;;2.67;2.10;;;;;;;;;;5060428;28;20032;-66
2023/05/06 03:39:10;;;;;;;4.70;2.40;;;;;;;;;;5067235;28;20849;-66
2023/05/06 03:41:35;;;;;;;2.92;2.47;;;;;;;;;;5068637;28;20360;-65
2023/05/06 03:44:01;;;;;;;2.80;2.40;;;;;;;;;;5042203;28;20036;-67
2023/05/06 03:46:26;;;;;;;3.10;2.40;;;;;;;;;;5057014;28;20291;-64
2023/05/06 03:48:51;;;;;;;3.33;2.43;;;;;;;;;;5070151;28;20320;-65
2023/05/06 03:51:16;;;;;;;2.80;2.27;;;;;;;;;;5077085;28;20291;-67
2023/05/06 03:53:42;;;;;;;3.50;2.38;;;;;;;;;;5061570;28;20805;-69
2023/05/06 03:56:07;;;;;;;2.57;2.27;;;;;;;;;;5066623;28;20040;-63
2023/05/06 03:58:32;;;;;;;3.27;2.30;;;;;;;;;;5067502;28;20032;-62
2023/05/06 04:00:59;;;;;;;3.20;2.30;;;;;;;;;;5058048;28;20337;-64
2023/05/06 04:03:25;;;;;;;2.60;2.05;;;;;;;;;;5081109;28;20036;-66
2023/05/06 04:05:50;;;;;;;2.88;2.30;;;;;;;;;;5073447;28;20047;-64
2023/05/06 04:08:16;;;;;;;2.75;2.22;;;;;;;;;;5074111;28;20035;-63
2023/05/06 04:10:41;;;;;;;3.40;2.55;;;;;;;;;;5057763;28;20032;-65
2023/05/06 04:13:06;;;;;;;3.30;2.47;;;;;;;;;;5055899;28;20048;-62
2023/05/06 04:15:33;;;;;;;3.30;2.23;;;;;;;;;;5072065;28;20036;-65
2023/05/06 04:17:58;;;;;;;6.13;2.90;;;;;;;;;;5060397;28;20381;-66
2023/05/06 04:20:23;;;;;;;3.58;2.67;;;;;;;;;;5046961;28;20116;-65
2023/05/06 04:22:49;;;;;;;3.10;2.30;;;;;;;;;;5059224;28;20072;-64
2023/05/06 04:25:14;;;;;;;4.28;2.60;;;;;;;;;;5051174;28;20345;-64
2023/05/06 04:27:40;;;;;;;3.83;2.67;;;;;;;;;;5066622;28;20117;-67
2023/05/06 04:30:05;;;;;;;3.50;2.35;;;;;;;;;;5047198;28;20044;-68
2023/05/06 04:32:32;;;;;;;3.72;2.58;;;;;;;;;;5071379;28;20036;-64
2023/05/06 04:34:58;;;;;;;3.10;2.47;;;;;;;;;;5066205;28;20032;-67
2023/05/06 04:37:23;;;;;;;2.97;2.30;;;;;;;;;;5049298;28;20124;-68
2023/05/06 04:39:48;;;;;;;3.78;2.53;;;;;;;;;;5047405;28;20311;-65
2023/05/06 04:42:14;;;;;;;4.00;2.50;;;;;;;;;;5049248;28;20032;-65
2023/05/06 04:44:41;;;;;;;3.15;2.80;;;;;;;;;;5062533;28;20734;-68
2023/05/06 04:47:06;;;;;;;3.53;2.38;;;;;;;;;;5027780;28;20040;-67
2023/05/06 04:49:31;;;;;;;3.60;2.70;;;;;;;;;;5043875;28;20129;-64
2023/05/06 04:51:56;;;;;;;3.50;2.40;;;;;;;;;;5072279;28;20369;-67
2023/05/06 04:54:21;;;;;;;3.63;2.53;;;;;;;;;;5059478;28;20301;-65
2023/05/06 04:56:47;;;;;;;4.13;2.53;;;;;;;;;;5072102;28;20290;-65
2023/05/06 04:59:12;;;;;;;4.00;2.27;;;;;;;;;;5062735;28;20064;-69
2023/05/06 05:01:37;;;;;;;3.13;2.43;;;;;;;;;;5043224;28;20275;-65
2023/05/06 05:04:02;;;;;;;3.43;2.50;;;;;;;;;;5076541;28;21143;-65
2023/05/06 05:06:28;;;;;;;3.25;2.50;;;;;;;;;;5073388;28;20501;-65
2023/05/06 05:08:53;;;;;;;3.90;2.63;;;;;;;;;;5069151;28;20040;-66
2023/05/06 05:11:18;;;;;;;4.20;2.57;;;;;;;;;;5049361;28;20118;-67
2023/05/06 05:13:43;;;;;;;6.72;4.90;;;;;;;;;;5072290;28;20032;-67
2023/05/06 05:16:09;;;;;;;3.77;3.10;;;;;;;;;;5070069;28;20456;-67
2023/05/06 05:18:34;;;;;;;2.58;2.15;;;;;;;;;;5055576;28;20282;-70
2023/05/06 05:20:59;;;;;;;4.30;2.77;;;;;;;;;;5061665;28;20115;-64
2023/05/06 05:23:24;;;;;;;3.17;2.50;;;;;;;;;;5066912;28;20063;-65
2023/05/06 05:25:50;;;;;;;3.53;2.30;;;;;;;;;;5075463;28;20301;-71
2023/05/06 05:28:15;;;;;;;4.35;2.70;;;;;;;;;;5042636;28;20048;-70
2023/05/06 05:30:40;;;;;;;3.53;2.70;;;;;;;;;;5043063;28;20068;-72
2023/05/06 05:33:05;;;;;;;2.80;2.40;;;;;;;;;;5038296;28;20278;-65
2023/05/06 05:35:30;;;;;;;3.87;2.70;;;;;;;;;;5048279;28;21199;-66
2023/05/06 05:37:56;;;;;;;2.83;2.30;;;;;;;;;;5044135;28;20385;-64
2023/05/06 05:40:21;;;;;;;4.43;2.57;;;;;;;;;;5056042;28;21951;-68
2023/05/06 05:42:46;;;;;;;3.05;2.55;;;;;;;;;;5058513;28;20294;-69
2023/05/06 05:45:11;;;;;;;3.43;2.50;;;;;;;;;;5070837;28;20067;-63
2023/05/06 05:47:37;;;;;;;4.95;2.70;;;;;;;;;;5077880;28;20465;-69
2023/05/06 05:50:02;;;;;;;3.20;2.43;;;;;;;;;;5073118;28;20028;-69
2023/05/06 05:52:27;;;;;;;2.95;2.30;;;;;;;;;;5070393;28;20390;-68
2023/05/06 05:54:53;;;;;;;2.93;2.33;;;;;;;;;;5069092;28;20059;-67
2023/05/06 05:57:18;;;;;;;3.20;2.38;;;;;;;;;;5049093;28;20349;-64
2023/05/06 05:59:43;;;;;;;3.30;2.50;;;;;;;;;;5067575;28;20345;-64
2023/05/06 06:02:09;;;;;;;2.90;2.28;;;;;;;;;;5077008;28;20290;-67
2023/05/06 06:04:34;;;;;;;3.33;2.53;;;;;;;;;;5061661;28;20047;-65
2023/05/06 06:07:00;;;;;;;2.83;2.30;;;;;;;;;;5063132;28;20075;-65
2023/05/06 06:09:26;;;;;;;3.92;2.40;;;;;;;;;;5076975;28;20040;-65
2023/05/06 06:11:51;;;;;;;3.80;2.35;;;;;;;;;;5070834;28;20036;-63
2023/05/06 06:14:16;;;;;;;3.47;2.60;;;;;;;;;;5070631;28;20056;-65
2023/05/06 06:16:41;;;;;;;4.77;2.43;;;;;;;;;;5067965;28;20041;-63
2023/05/06 06:19:07;;;;;;;4.22;2.20;;;;;;;;;;5041797;28;20393;-64
2023/05/06 06:21:32;;;;;;;3.40;2.60;;;;;;;;;;5050385;28;20036;-69
2023/05/06 06:23:57;;;;;;;3.40;2.20;;;;;;;;;;5055966;28;20322;-68
2023/05/06 06:26:22;;;;;;;2.50;2.30;;;;;;;;;;5047041;28;20036;-68
2023/05/06 06:28:48;;;;;;;2.50;2.30;;;;;;;;;;5070765;28;20961;-67
2023/05/06 06:31:13;;;;;;;3.50;2.67;;;;;;;;;;5050722;28;20353;-70
2023/05/06 06:33:38;;;;;;;3.20;2.50;;;;;;;;;;5070713;28;20064;-66
2023/05/06 06:36:04;;;;;;;3.30;2.50;;;;;;;;;;5066550;28;20040;-66
2023/05/06 06:38:29;;;;;;;3.45;2.50;;;;;;;;;;5051456;28;20316;-70
2023/05/06 06:40:55;;;;;;;2.83;2.28;;;;;;;;;;5043818;28;20047;-68
2023/05/06 06:43:20;;;;;;;3.00;2.30;;;;;;;;;;5059239;28;20546;-73
2023/05/06 06:45:45;;;;;;;3.80;2.40;;;;;;;;;;5035425;28;20283;-67
2023/05/06 06:48:11;;;;;;;3.42;2.50;;;;;;;;;;5055224;28;20293;-66
2023/05/06 06:50:36;;;;;;;3.80;2.80;;;;;;;;;;5052050;28;20039;-71
2023/05/06 06:53:01;;;;;;;4.87;3.03;;;;;;;;;;5070169;28;20281;-67
2023/05/06 06:55:27;;;;;;;3.13;2.57;;;;;;;;;;5039525;28;21144;-65
2023/05/06 06:57:52;;;;;;;3.13;2.53;;;;;;;;;;5051175;28;20329;-65
2023/05/06 07:00:17;;;;;;;2.70;2.13;;;;;;;;;;5069009;28;20467;-66
2023/05/06 07:02:43;;;;;;;3.05;2.42;;;;;;;;;;5061870;28;20286;-64
2023/05/06 07:05:08;;;;;;;2.85;2.28;;;;;;;;;;5071842;28;20037;-68
2023/05/06 07:07:33;;;;;;;2.85;2.05;;;;;;;;;;5051649;28;20090;-69
2023/05/06 07:09:59;;;;;;;2.88;2.58;;;;;;;;;;5071197;28;20093;-68
2023/05/06 07:12:25;;;;;;;3.33;2.50;;;;;;;;;;5060331;28;20032;-64
2023/05/06 07:14:50;;;;;;;4.10;2.35;;;;;;;;;;5059664;28;20651;-64
2023/05/06 07:17:16;;;;;;;2.67;2.25;;;;;;;;;;5056497;28;20456;-67
2023/05/06 07:19:41;;;;;;;2.60;2.20;;;;;;;;;;5052780;28;20039;-68
2023/05/06 07:22:06;;;;;;;2.85;2.38;;;;;;;;;;5052194;28;20036;-70
2023/05/06 07:24:32;;;;;;;3.03;2.30;;;;;;;;;;5070995;28;20824;-66
2023/05/06 07:26:57;;;;;;;3.22;2.55;;;;;;;;;;5068568;28;20635;-63
2023/05/06 07:29:22;;;;;;;4.53;2.28;;;;;;;;;;5046276;23;20124;-66
2023/05/06 07:31:47;;;;;;;2.60;2.15;;;;;;;;;;5000110;28;20357;-63
2023/05/06 07:34:13;;;;;;;4.47;2.50;;;;;;;;;;5003290;28;20049;-66
2023/05/06 07:36:39;;;;;;;5.20;2.72;;;;;;;;;;5006631;28;20664;-66
2023/05/06 07:39:08;;;;;;;3.42;2.35;;;;;;;;;;5007557;28;20133;-65
2023/05/06 07:41:33;;;;;;;3.40;2.65;;;;;;;;;;5007166;28;20037;-66
2023/05/06 07:43:58;;;;;;;3.92;2.50;;;;;;;;;;5010103;28;20426;-64
2023/05/06 07:46:24;;;;;;;4.37;2.40;;;;;;;;;;5013953;28;20033;-66
2023/05/06 07:48:50;;;;;;;7.53;2.70;;;;;;;;;;5028555;28;20290;-63
2023/05/06 07:51:15;;;;;;;4.50;2.45;;;;;;;;;;5027466;28;20060;-67
2023/05/06 07:53:40;;;;;;;3.58;2.50;;;;;;;;;;5012896;28;20114;-61
2023/05/06 07:56:06;;;;;;;4.70;2.97;;;;;;;;;;5006980;28;20128;-62
2023/05/06 07:58:31;;;;;;;6.40;2.78;;;;;;;;;;4998095;28;20411;-64
2023/05/06 08:00:56;;;;;;;9.13;3.33;;;;;;;;;;5009547;28;20033;-67
2023/05/06 08:03:22;;;;;;;11.32;3.80;;;;;;;;;;4998857;28;20671;-65
2023/05/06 08:05:48;;;;;;;8.68;3.50;;;;;;;;;;5010249;28;20025;-63
2023/05/06 08:08:14;;;;;;;8.73;4.45;;;;;;;;;;5013648;28;20041;-61
2023/05/06 08:10:39;;;;;;;9.23;4.20;;;;;;;;;;5027802;28;20051;-65
2023/05/06 08:13:04;;;;;;;9.17;4.87;;;;;;;;;;5025687;28;20068;-61
2023/05/06 08:15:30;;;;;;;7.57;4.53;;;;;;;;;;4996264;28;20362;-61
2023/05/06 08:17:56;;;;;;;10.40;4.80;;;;;;;;;;5012134;28;20802;-65
2023/05/06 08:20:21;;;;;;;7.70;4.50;;;;;;;;;;5006801;28;20037;-63
2023/05/06 08:22:47;;;;;;;9.37;5.07;;;;;;;;;;5009557;28;20056;-67
2023/05/06 08:25:12;;;;;;;6.70;4.20;;;;;;;;;;4992737;28;20311;-68
2023/05/06 08:27:38;;;;;;;6.13;4.03;;;;;;;;;;4997332;28;20737;-60
2023/05/06 08:30:04;;;;;;;5.80;4.32;;;;;;;;;;5013516;28;20178;-62
2023/05/06 08:32:29;;;;;;;6.00;4.22;;;;;;;;;;5008497;28;20124;-68
2023/05/06 08:34:54;;;;;;;7.93;4.73;;;;;;;;;;5007523;28;20743;-63
2023/05/06 08:37:20;;;;;;;5.97;4.07;;;;;;;;;;4991323;28;20304;-66
2023/05/06 08:39:45;;;;;;;7.23;4.23;;;;;;;;;;5005321;28;20326;-65
2023/05/06 08:42:11;;;;;;;6.87;4.30;;;;;;;;;;5007268;28;20625;-60
2023/05/06 08:44:37;;;;;;;9.82;4.45;;;;;;;;;;4995824;28;20307;-66
2023/05/06 08:47:02;;;;;;;8.20;4.53;;;;;;;;;;5011845;28;20418;-66
2023/05/06 08:49:27;;;;;;;6.60;3.90;;;;;;;;;;5006984;28;20040;-60
2023/05/06 08:51:52;;;;;;;6.63;4.00;;;;;;;;;;4995526;28;20822;-68
2023/05/06 08:54:18;;;;;;;4.40;3.60;;;;;;;;;;4996828;28;20041;-61
2023/05/06 08:56:45;;;;;;;5.78;4.00;;;;;;;;;;5007593;28;20323;-65
2023/05/06 08:59:11;;;;;;;5.45;4.10;;;;;;;;;;5011838;28;20060;-63
2023/05/06 09:01:36;;;;;;;5.80;4.30;;;;;;;;;;5025933;28;20708;-66
2023/05/06 09:04:02;;;;;;;4.80;3.40;;;;;;;;;;4992316;28;20382;-68
2023/05/06 09:06:28;;;;;;;6.00;3.67;;;;;;;;;;5007559;28;20378;-65
2023/05/06 09:08:53;;;;;;;5.53;3.72;;;;;;;;;;5025060;28;20079;-66
2023/05/06 09:11:20;;;;;;;5.35;3.40;;;;;;;;;;4995566;28;20033;-65
2023/05/06 09:13:45;;;;;;;4.70;3.30;;;;;;;;;;4994167;28;20558;-63
2023/05/06 09:16:10;;;;;;;4.90;3.83;;;;;;;;;;4996304;28;20045;-64
2023/05/06 09:18:36;;;;;;;4.68;3.17;;;;;;;;;;4990867;28;20494;-64
2023/05/06 09:21:02;;;;;;;5.10;3.78;;;;;;;;;;4990551;28;20377;-64
2023/05/06 09:23:27;;;;;;;6.03;3.72;;;;;;;;;;4995938;28;20049;-63
2023/05/06 09:25:53;;;;;;;6.05;3.65;;;;;;;;;;5006661;28;20161;-63
2023/05/06 09:28:18;;;;;;;5.93;3.50;;;;;;;;;;5006514;28;20422;-65
2023/05/06 09:30:44;;;;;;;7.50;3.17;;;;;;;;;;5006088;28;20295;-68
2023/05/06 09:33:09;;;;;;;5.45;3.60;;;;;;;;;;5010651;28;20649;-64
2023/05/06 09:35:36;;;;;;;5.47;3.40;;;;;;;;;;4991557;28;20110;-70
2023/05/06 09:38:01;;;;;;;5.25;3.55;;;;;;;;;;4997142;28;20075;-73
2023/05/06 09:40:28;;;;;;;5.70;3.30;;;;;;;;;;4995655;28;20509;-67
2023/05/06 09:42:54;;;;;;;5.18;3.38;;;;;;;;;;5012428;28;20295;-64
2023/05/06 09:45:19;;;;;;;6.65;3.50;;;;;;;;;;4997014;28;20746;-60
2023/05/06 09:47:45;;;;;;;4.95;3.53;;;;;;;;;;5011854;28;20049;-62
2023/05/06 09:50:10;;;;;;;5.45;3.58;;;;;;;;;;4994232;28;20034;-69
2023/05/06 09:52:35;;;;;;;5.80;3.35;;;;;;;;;;4993206;28;20138;-68
2023/05/06 09:55:01;;;;;;;7.05;3.70;;;;;;;;;;5007496;28;20051;-65
2023/05/06 09:57:26;;;;;;;3.42;2.95;;;;;;;;;;5002891;28;20612;-68
2023/05/06 09:59:51;;;;;;;6.70;4.10;;;;;;;;;;4989088;28;20103;-69
2023/05/06 10:02:17;;;;;;;4.90;3.70;;;;;;;;;;5004343;28;20227;-59
2023/05/06 10:04:44;;;;;;;7.57;3.55;;;;;;;;;;4989875;28;20299;-61
2023/05/06 10:07:12;;;;;;;5.15;3.65;;;;;;;;;;4996685;28;20123;-65
2023/05/06 10:09:38;;;;;;;5.68;3.40;;;;;;;;;;4991622;28;20180;-62
2023/05/06 10:12:04;;;;;;;5.50;3.22;;;;;;;;;;4990499;28;20440;-62
2023/05/06 10:14:29;;;;;;;5.47;3.47;;;;;;;;;;4994648;28;20179;-61
2023/05/06 10:16:55;;;;;;;5.30;3.40;;;;;;;;;;4991853;28;20041;-69
2023/05/06 10:19:22;;;;;;;4.93;3.20;;;;;;;;;;4995324;28;20046;-65
2023/05/06 10:21:48;;;;;;;5.18;3.72;;;;;;;;;;5006022;28;20116;-61
2023/05/06 10:24:15;;;;;;;4.60;3.40;;;;;;;;;;4991400;28;20045;-63
2023/05/06 10:26:40;;;;;;;4.30;3.35;;;;;;;;;;4999306;28;20090;-64
2023/05/06 10:29:09;;;;;;;5.53;3.42;;;;;;;;;;5018833;28;20076;-66
2023/05/06 10:31:35;;;;;;;8.75;3.35;;;;;;;;;;4997230;28;20053;-70
2023/05/06 10:34:01;;;;;;;5.97;3.60;;;;;;;;;;4996156;28;20074;-71
2023/05/06 10:36:27;;;;;;;7.65;3.78;;;;;;;;;;5016364;28;20062;-66
2023/05/06 10:38:56;;;;;;;4.78;3.15;;;;;;;;;;5008929;28;20102;-62
2023/05/06 10:41:21;;;;;;;3.83;2.90;;;;;;;;;;4993580;28;20393;-64
2023/05/06 10:43:48;;;;;;;4.15;3.10;;;;;;;;;;4998077;28;20032;-61
2023/05/06 10:46:14;;;;;;;5.72;3.00;;;;;;;;;;5010541;28;20025;-63
2023/05/06 10:48:58;;;;;;;4.82;3.10;;;;;;;;;;5028602;28;20491;-65
2023/05/06 10:51:24;;;;;;;3.95;3.10;;;;;;;;;;5028312;28;20048;-59
2023/05/06 10:53:57;;;;;;;4.05;2.80;;;;;;;;;;5009397;28;20145;-67
2023/05/06 10:56:22;;;;;;;4.43;3.00;;;;;;;;;;5008675;28;20045;-68
2023/05/06 10:58:47;;;;;;;5.85;3.03;;;;;;;;;;4997602;28;20052;-60
2023/05/06 11:01:16;;;;;;;3.72;3.00;;;;;;;;;;4992352;28;20042;-68
2023/05/06 11:03:41;;;;;;;5.32;2.97;;;;;;;;;;4998098;28;20106;-65
2023/05/06 11:06:07;;;;;;;3.40;2.55;;;;;;;;;;4996469;28;20037;-69
2023/05/06 11:08:33;;;;;;;4.75;2.90;;;;;;;;;;4998703;28;20243;-68
2023/05/06 11:10:58;;;;;;;3.53;2.30;;;;;;;;;;4998342;28;20094;-66
2023/05/06 11:13:23;;;;;;;6.10;2.70;;;;;;;;;;5006824;28;20041;-66
2023/05/06 11:15:50;;;;;;;4.35;3.00;;;;;;;;;;5014230;28;20311;-59
2023/05/06 11:18:28;;;;;;;5.50;2.67;;;;;;;;;;5013524;28;20042;-66
2023/05/06 11:21:00;;;;;;;3.67;2.70;;;;;;;;;;5008030;28;20055;-64
2023/05/06 11:23:40;;;;;;;4.75;2.80;;;;;;;;;;5012587;28;20056;-64
2023/05/06 11:26:06;;;;;;;3.22;2.30;;;;;;;;;;5026522;28;20052;-67
2023/05/06 11:28:31;;;;;;;4.05;2.20;;;;;;;;;;4992993;28;20148;-66
2023/05/06 11:30:56;;;;;;;4.33;2.50;;;;;;;;;;5013104;28;20045;-59
2023/05/06 11:33:21;;;;;;;4.40;2.30;;;;;;;;;;5014487;28;20756;-68
2023/05/06 11:35:47;;;;;;;3.47;2.55;;;;;;;;;;5009404;28;20712;-65
2023/05/06 11:38:12;;;;;;;4.00;2.30;;;;;;;;;;5008469;28;20126;-64
2023/05/06 11:40:37;;;;;;;4.97;2.70;;;;;;;;;;5008874;28;20480;-67
2023/05/06 11:43:09;;;;;;;3.87;2.00;;;;;;;;;;4996759;28;20573;-66
2023/05/06 11:45:45;;;;;;;3.08;2.05;;;;;;;;;;5008265;28;20299;-63
2023/05/06 11:48:11;;;;;;;6.18;2.38;;;;;;;;;;5002550;28;20051;-63
2023/05/06 11:50:36;;;;;;;3.83;2.33;;;;;;;;;;5021770;28;20493;-69
2023/05/06 11:53:01;;;;;;;3.85;2.33;;;;;;;;;;5041527;28;20037;-63
2023/05/06 11:55:26;;;;;;;4.17;2.33;;;;;;;;;;5040923;28;20740;-66
2023/05/06 11:57:52;;;;;;;4.90;2.47;;;;;;;;;;5022313;28;20413;-62
2023/05/06 12:00:17;;;;;;;3.90;2.00;;;;;;;;;;5007735;28;20124;-63
2023/05/06 12:02:42;;;;;;;3.78;2.50;;;;;;;;;;5023227;28;20571;-65
2023/05/06 12:05:08;;;;;;;3.65;2.33;;;;;;;;;;5019957;28;20357;-62
2023/05/06 12:07:33;;;;;;;3.30;2.20;;;;;;;;;;5004316;28;20487;-67
2023/05/06 12:10:02;;;;;;;3.97;2.10;;;;;;;;;;5005844;28;20060;-66
2023/05/06 12:12:30;;;;;;;3.08;2.47;;;;;;;;;;5006495;28;20047;-63
2023/05/06 12:14:55;;;;;;;3.95;2.50;;;;;;;;;;5023220;28;20109;-68
2023/05/06 12:17:20;;;;;;;2.97;2.35;;;;;;;;;;5006315;28;20033;-70
2023/05/06 12:19:46;;;;;;;4.67;2.07;;;;;;;;;;5039855;28;20033;-70
2023/05/06 12:22:17;;;;;;;4.07;1.92;;;;;;;;;;5019849;28;20851;-68
2023/05/06 12:24:43;;;;;;;4.75;2.50;;;;;;;;;;5040167;28;20044;-69
2023/05/06 12:27:08;;;;;;;4.20;2.47;;;;;;;;;;5004931;28;20037;-61
2023/05/06 12:29:34;;;;;;;4.93;2.50;;;;;;;;;;5002218;28;20410;-64
2023/05/06 12:32:11;;;;;;;5.63;2.50;;;;;;;;;;5022053;28;20279;-64
2023/05/06 12:34:37;;;;;;;3.80;2.35;;;;;;;;;;5040398;28;20033;-61
2023/05/06 12:37:02;;;;;;;2.67;2.10;;;;;;;;;;5005112;28;20063;-65
2023/05/06 12:39:37;;;;;;;4.18;2.33;;;;;;;;;;5003637;28;20549;-61
2023/05/06 12:42:02;;;;;;;3.67;2.45;;;;;;;;;;5022617;28;20065;-66
2023/05/06 12:44:33;;;;;;;2.90;2.38;;;;;;;;;;5021738;28;20496;-62
2023/05/06 12:47:03;;;;;;;5.97;2.28;;;;;;;;;;5039659;28;20080;-64
2023/05/06 12:49:43;;;;;;;7.05;2.10;;;;;;;;;;5001741;28;20020;-58
2023/05/06 12:52:09;;;;;;;4.30;2.50;;;;;;;;;;5021699;28;20075;-68
2023/05/06 12:54:34;;;;;;;3.92;2.30;;;;;;;;;;5006729;28;20029;-63
2023/05/06 12:57:00;;;;;;;6.40;2.50;;;;;;;;;;5006379;28;20049;-70
2023/05/06 12:59:25;;;;;;;4.95;2.30;;;;;;;;;;5021914;28;20099;-68
2023/05/06 13:01:50;;;;;;;2.80;2.20;;;;;;;;;;5038697;28;20029;-69
2023/05/06 13:04:16;;;;;;;6.20;2.50;;;;;;;;;;5005429;28;20271;-63
2023/05/06 13:06:41;;;;;;;5.97;2.87;;;;;;;;;;5035422;28;20060;-65
2023/05/06 13:09:06;;;;;;;6.33;2.37;;;;;;;;;;5004901;28;20861;-66
2023/05/06 13:11:31;;;;;;;3.67;2.50;;;;;;;;;;5019005;28;20660;-63
2023/05/06 13:15:15;;;;;;;5.77;2.57;;;;;;;;;;5016851;27;1987948;-61
2023/05/06 13:17:41;;;;;;;4.43;2.90;;;;;;;;;;5055498;28;22759;-65
2023/05/06 13:20:06;;;;;;;5.67;2.80;;;;;;;;;;5062653;28;20457;-65
2023/05/06 13:22:31;;;;;;;5.57;2.78;;;;;;;;;;5070092;28;20407;-66
2023/05/06 13:24:57;;;;;;;5.13;2.87;;;;;;;;;;5051515;28;20040;-61
2023/05/06 13:27:22;;;;;;;4.43;2.73;;;;;;;;;;5088228;28;20044;-67
2023/05/06 13:29:47;;;;;;;3.93;2.67;;;;;;;;;;5086597;28;20321;-69
2023/05/06 13:32:13;;;;;;;4.10;2.38;;;;;;;;;;5090165;28;20868;-66
2023/05/06 13:34:38;;;;;;;5.25;2.50;;;;;;;;;;5088915;28;20654;-64
2023/05/06 13:37:03;;;;;;;4.20;2.53;;;;;;;;;;5066847;28;20462;-61
2023/05/06 13:39:29;;;;;;;5.07;2.75;;;;;;;;;;5067587;28;20298;-66
2023/05/06 13:41:54;;;;;;;4.45;2.80;;;;;;;;;;5072882;28;20040;-61
2023/05/06 13:44:20;;;;;;;4.47;2.60;;;;;;;;;;5063442;28;20042;-63
2023/05/06 13:46:45;;;;;;;6.18;2.67;;;;;;;;;;5085383;28;20178;-65
2023/05/06 13:49:11;;;;;;;3.25;2.38;;;;;;;;;;5071364;28;20036;-70
2023/05/06 13:51:36;;;;;;;4.22;2.50;;;;;;;;;;5049156;28;20047;-65
2023/05/06 13:54:01;;;;;;;3.70;2.70;;;;;;;;;;5070852;28;20138;-66
2023/05/06 13:56:27;;;;;;;3.10;2.30;;;;;;;;;;5067086;28;20518;-62
2023/05/06 13:58:52;;;;;;;3.90;2.60;;;;;;;;;;5086747;28;20040;-64
2023/05/06 14:01:19;;;;;;;2.92;2.28;;;;;;;;;;5066647;28;20286;-66
2023/05/06 14:03:44;;;;;;;5.07;2.63;;;;;;;;;;5068029;28;20102;-67
2023/05/06 14:06:10;;;;;;;5.63;3.00;;;;;;;;;;5067887;28;20044;-62
2023/05/06 14:08:35;;;;;;;5.35;2.78;;;;;;;;;;5051114;28;20320;-67
2023/05/06 14:11:01;;;;;;;4.63;2.50;;;;;;;;;;5066531;28;20063;-64
2023/05/06 14:13:26;;;;;;;5.28;2.25;;;;;;;;;;5066247;28;20402;-63
2023/05/06 14:15:51;;;;;;;4.32;2.40;;;;;;;;;;5082095;28;20094;-66
2023/05/06 14:18:16;;;;;;;4.13;2.23;;;;;;;;;;5053325;28;20110;-69
2023/05/06 14:20:42;;;;;;;4.30;2.30;;;;;;;;;;5071211;28;20890;-60
2023/05/06 14:23:07;;;;;;;3.47;2.38;;;;;;;;;;5083560;28;20137;-57
2023/05/06 14:25:32;;;;;;;4.05;2.40;;;;;;;;;;5058012;28;20059;-67
2023/05/06 14:27:58;;;;;;;4.80;2.28;;;;;;;;;;5073082;28;20116;-70
2023/05/06 14:30:23;;;;;;;2.83;2.40;;;;;;;;;;5041444;28;20557;-63
2023/05/06 14:32:48;;;;;;;3.10;2.40;;;;;;;;;;5038382;28;20045;-64
2023/05/06 14:35:13;;;;;;;4.53;2.03;;;;;;;;;;5056226;28;20442;-67